createdAt,value
2018-09-21T00:00:40.649Z,95740.97
2018-09-21T00:03:12.236Z,95735.13
2018-09-21T00:05:42.068Z,95738.16
2018-09-21T00:08:11.825Z,95736.05
2018-09-21T00:10:41.592Z,95734.14
2018-09-21T00:13:11.371Z,95737.55
2018-09-21T00:15:41.207Z,95731.16
2018-09-21T00:18:10.969Z,95731.64
2018-09-21T00:20:41.153Z,95508.75
2018-09-21T00:23:10.801Z,95739.89
2018-09-21T00:25:40.513Z,95738.98
2018-09-21T00:28:10.308Z,95740.14
2018-09-21T00:30:40.136Z,95738.55
2018-09-21T00:33:09.940Z,95744.88
2018-09-21T00:35:39.734Z,95741.41
2018-09-21T00:38:09.401Z,95734.28
2018-09-21T00:40:39.166Z,95738.08
2018-09-21T00:43:08.912Z,95734.92
2018-09-21T00:45:38.643Z,95731.32
2018-09-21T00:48:08.459Z,95734.13
2018-09-21T00:50:38.340Z,95739.55
2018-09-21T00:53:08.310Z,95739.36
2018-09-21T00:55:38.072Z,95741.83
2018-09-21T00:58:07.823Z,95736.84
2018-09-21T01:00:37.780Z,95734.81
2018-09-21T01:03:07.538Z,95729.39
2018-09-21T01:05:37.364Z,95733.23
2018-09-21T01:08:07.190Z,95729.08
2018-09-21T01:10:37.047Z,95730.77
2018-09-21T01:13:06.961Z,95736.55
2018-09-21T01:15:36.869Z,95733.48
2018-09-21T01:18:06.795Z,95735.29
2018-09-21T01:20:36.662Z,95735.52
2018-09-21T01:23:06.473Z,95743.11
2018-09-21T01:25:36.259Z,95739.44
2018-09-21T01:28:06.030Z,95743.67
2018-09-21T01:30:35.766Z,95743.03
2018-09-21T01:33:05.353Z,95746.20
2018-09-21T01:35:35.288Z,95747.23
2018-09-21T01:38:05.096Z,95748.72
2018-09-21T01:40:34.945Z,95753.78
2018-09-21T01:43:04.620Z,95752.58
2018-09-21T01:45:34.272Z,95743.05
2018-09-21T01:48:04.048Z,95751.42
2018-09-21T01:50:34.076Z,95739.92
2018-09-21T01:53:03.823Z,95749.30
2018-09-21T01:55:33.591Z,95745.80
2018-09-21T01:58:03.359Z,95739.63
2018-09-21T02:00:33.182Z,95748.63
2018-09-21T02:03:03.106Z,95743.27
2018-09-21T02:05:32.937Z,95745.23
2018-09-21T02:08:02.793Z,95741.72
2018-09-21T02:10:32.878Z,95742.55
2018-09-21T02:13:02.717Z,95743.79
2018-09-21T02:15:32.539Z,95745.57
2018-09-21T02:18:02.430Z,95743.31
2018-09-21T02:20:32.270Z,95751.34
2018-09-21T02:23:02.077Z,95743.27
2018-09-21T02:25:32.398Z,95745.38
2018-09-21T02:28:02.065Z,95742.06
2018-09-21T02:30:31.794Z,95746.44
2018-09-21T02:33:01.585Z,95750.73
2018-09-21T02:35:31.423Z,95735.97
2018-09-21T02:38:01.274Z,95747.19
2018-09-21T02:40:31.101Z,95744.25
2018-09-21T02:43:00.876Z,95752.07
2018-09-21T02:45:30.572Z,95746.67
2018-09-21T02:48:00.326Z,95748.86
2018-09-21T02:50:30.159Z,95748.36
2018-09-21T02:52:59.841Z,95750.59
2018-09-21T02:55:29.782Z,95749.20
2018-09-21T02:57:59.478Z,95752.38
2018-09-21T03:00:29.287Z,95752.97
2018-09-21T03:02:59.104Z,95752.64
2018-09-21T03:05:28.902Z,95755.71
2018-09-21T03:07:58.693Z,95755.71
2018-09-21T03:10:28.507Z,95760.85
2018-09-21T03:12:58.149Z,95758.95
2018-09-21T03:15:27.903Z,95759.97
2018-09-21T03:17:57.658Z,95759.45
2018-09-21T03:20:27.604Z,95758.91
2018-09-21T03:22:57.428Z,95755.94
2018-09-21T03:25:27.248Z,95758.59
2018-09-21T03:27:57.337Z,95757.64
2018-09-21T03:30:27.079Z,95757.80
2018-09-21T03:32:56.863Z,95752.91
2018-09-21T03:35:26.752Z,95757.00
2018-09-21T03:37:56.496Z,95756.51
2018-09-21T03:40:26.342Z,95756.53
2018-09-21T03:42:56.208Z,95758.03
2018-09-21T03:45:25.948Z,95760.23
2018-09-21T03:47:55.662Z,95712.92
2018-09-21T03:50:25.380Z,95766.14
2018-09-21T03:52:55.170Z,95762.63
2018-09-21T03:55:25.162Z,95757.23
2018-09-21T03:57:55.021Z,95758.67
2018-09-21T04:00:24.815Z,95761.08
2018-09-21T04:02:54.739Z,95756.91
2018-09-21T04:05:24.636Z,95761.10
2018-09-21T04:07:54.446Z,95761.28
2018-09-21T04:10:24.200Z,95762.47
2018-09-21T04:12:54.095Z,95766.91
2018-09-21T04:15:24.055Z,95758.94
2018-09-21T04:17:53.878Z,95761.22
2018-09-21T04:20:23.641Z,95766.97
2018-09-21T04:22:58.915Z,95764.70
2018-09-21T04:25:29.014Z,95765.30
2018-09-21T04:27:58.858Z,95763.36
2018-09-21T04:30:30.169Z,95763.05
2018-09-21T04:33:00.027Z,95768.88
2018-09-21T04:35:29.799Z,95765.41
2018-09-21T04:37:59.654Z,95762.70
2018-09-21T04:40:29.729Z,95766.26
2018-09-21T04:42:59.365Z,95762.25
2018-09-21T04:45:29.323Z,95767.91
2018-09-21T04:47:59.017Z,95769.59
2018-09-21T04:50:28.740Z,95766.14
2018-09-21T04:52:58.348Z,95772.49
2018-09-21T04:55:28.122Z,95783.90
2018-09-21T04:57:57.873Z,95781.88
2018-09-21T05:00:27.689Z,95788.20
2018-09-21T05:02:57.496Z,95783.58
2018-09-21T05:05:27.301Z,95800.33
2018-09-21T05:07:57.021Z,95794.33
2018-09-21T05:10:26.861Z,95792.66
2018-09-21T05:12:56.710Z,95793.62
2018-09-21T05:15:26.469Z,95792.70
2018-09-21T05:17:56.259Z,95788.37
2018-09-21T05:20:26.127Z,95787.55
2018-09-21T05:22:56.558Z,95787.66
2018-09-21T05:25:26.859Z,95786.39
2018-09-21T05:27:57.297Z,95783.32
2018-09-21T05:30:29.009Z,95777.50
2018-09-21T05:32:59.632Z,95782.62
2018-09-21T05:35:30.074Z,95784.03
2018-09-21T05:37:59.879Z,95777.72
2018-09-21T05:40:30.499Z,95774.72
2018-09-21T05:43:00.430Z,95778.27
2018-09-21T05:45:30.229Z,95774.20
2018-09-21T05:47:59.983Z,95774.04
2018-09-21T05:50:30.389Z,95777.28
2018-09-21T05:53:00.310Z,95775.27
2018-09-21T05:55:30.019Z,95767.01
2018-09-21T05:57:59.756Z,95771.17
2018-09-21T06:00:29.492Z,95769.69
2018-09-21T06:02:59.417Z,95775.91
2018-09-21T06:05:29.188Z,95776.17
2018-09-21T06:07:59.133Z,95768.27
2018-09-21T06:10:29.135Z,95767.36
2018-09-21T06:12:58.826Z,95766.78
2018-09-21T06:15:28.701Z,95764.33
2018-09-21T06:17:58.369Z,95763.03
2018-09-21T06:20:28.303Z,95760.59
2018-09-21T06:22:58.265Z,95753.33
2018-09-21T06:25:27.996Z,95753.25
2018-09-21T06:27:57.891Z,95759.23
2018-09-21T06:30:27.821Z,95753.23
2018-09-21T06:32:57.618Z,95742.08
2018-09-21T06:35:27.548Z,95744.91
2018-09-21T06:37:57.438Z,95739.77
2018-09-21T06:40:27.383Z,95749.83
2018-09-21T06:42:57.137Z,95745.33
2018-09-21T06:45:26.952Z,95748.20
2018-09-21T06:47:56.869Z,95744.82
2018-09-21T06:50:26.663Z,95758.89
2018-09-21T06:52:56.422Z,95753.84
2018-09-21T06:55:26.034Z,95748.48
2018-09-21T06:57:55.886Z,95747.19
2018-09-21T07:00:25.634Z,95748.65
2018-09-21T07:02:55.444Z,95750.11
2018-09-21T07:05:25.366Z,95746.26
2018-09-21T07:07:55.126Z,95754.98
2018-09-21T07:10:24.930Z,95747.53
2018-09-21T07:12:54.694Z,95746.94
2018-09-21T07:15:24.603Z,95742.42
2018-09-21T07:17:54.434Z,95741.19
2018-09-21T07:20:24.279Z,95740.48
2018-09-21T07:22:54.136Z,95732.46
2018-09-21T07:25:23.958Z,95728.59
2018-09-21T07:27:54.132Z,95728.91
2018-09-21T07:30:23.768Z,95728.75
2018-09-21T07:32:53.662Z,95728.78
2018-09-21T07:35:23.367Z,95728.06
2018-09-21T07:37:53.685Z,95723.40
2018-09-21T07:40:23.666Z,95716.60
2018-09-21T07:42:53.437Z,95718.88
2018-09-21T07:45:23.296Z,95715.74
2018-09-21T07:47:53.148Z,95717.13
2018-09-21T07:50:23.018Z,95718.65
2018-09-21T07:52:52.879Z,95715.88
2018-09-21T07:55:22.667Z,95712.39
2018-09-21T07:57:52.500Z,95710.78
2018-09-21T08:00:22.427Z,95702.58
2018-09-21T08:02:52.433Z,95701.84
2018-09-21T08:05:38.420Z,95703.08
2018-09-21T08:08:08.414Z,95691.39
2018-09-21T08:10:38.840Z,95701.41
2018-09-21T08:13:08.671Z,95698.73
2018-09-21T08:15:38.481Z,95699.69
2018-09-21T08:18:08.388Z,95697.23
2018-09-21T08:20:38.165Z,95695.91
2018-09-21T08:23:08.104Z,95689.64
2018-09-21T08:25:37.848Z,95698.63
2018-09-21T08:28:07.574Z,95685.16
2018-09-21T08:30:37.371Z,95690.20
2018-09-21T08:33:07.418Z,95681.52
2018-09-21T08:35:37.255Z,95677.34
2018-09-21T08:38:07.484Z,95675.94
2018-09-21T08:40:37.207Z,95676.81
2018-09-21T08:43:07.077Z,95675.38
2018-09-21T08:45:37.002Z,95664.45
2018-09-21T08:48:06.972Z,95658.80
2018-09-21T08:50:36.710Z,95666.80
2018-09-21T08:53:07.022Z,95660.79
2018-09-21T08:55:36.698Z,95659.50
2018-09-21T08:58:06.580Z,95654.11
2018-09-21T09:00:36.230Z,95644.89
2018-09-21T09:03:05.986Z,95643.56
2018-09-21T09:05:35.877Z,95643.81
2018-09-21T09:08:05.642Z,95634.70
2018-09-21T09:10:35.509Z,95633.53
2018-09-21T09:13:05.254Z,95628.48
2018-09-21T09:15:35.051Z,95628.41
2018-09-21T09:18:04.839Z,95618.28
2018-09-21T09:20:34.807Z,95620.03
2018-09-21T09:23:04.588Z,95617.71
2018-09-21T09:25:34.514Z,95611.86
2018-09-21T09:28:04.634Z,95612.23
2018-09-21T09:30:34.493Z,95606.15
2018-09-21T09:33:04.573Z,95601.42
2018-09-21T09:35:34.297Z,95603.84
2018-09-21T09:38:04.219Z,95597.74
2018-09-21T09:40:34.493Z,95593.66
2018-09-21T09:43:04.359Z,95586.46
2018-09-21T09:45:34.305Z,95590.03
2018-09-21T09:48:04.004Z,95584.84
2018-09-21T09:50:33.811Z,95581.00
2018-09-21T09:53:03.732Z,95577.60
2018-09-21T09:55:33.493Z,95575.09
2018-09-21T09:58:03.279Z,95572.37
2018-09-21T10:00:41.023Z,95570.89
2018-09-21T10:03:11.111Z,95570.06
2018-09-21T10:05:45.012Z,95563.45
2018-09-21T10:08:14.999Z,95565.44
2018-09-21T10:10:45.579Z,95560.34
2018-09-21T10:13:15.393Z,95558.53
2018-09-21T10:15:45.162Z,95550.52
2018-09-21T10:18:45.586Z,95551.67
2018-09-21T10:21:15.405Z,95544.26
2018-09-21T10:23:45.206Z,95546.11
2018-09-21T10:26:15.046Z,95545.92
2018-09-21T10:28:44.987Z,95531.17
2018-09-21T10:31:14.808Z,95533.91
2018-09-21T10:33:44.751Z,95529.53
2018-09-21T10:36:14.423Z,95531.41
2018-09-21T10:38:44.134Z,95522.83
2018-09-21T10:41:13.905Z,95521.65
2018-09-21T10:43:43.741Z,95509.79
2018-09-21T10:46:13.692Z,95506.90
2018-09-21T10:48:43.473Z,95511.92
2018-09-21T10:51:13.243Z,95501.16
2018-09-21T10:53:43.036Z,95500.53
2018-09-21T10:56:12.892Z,95497.31
2018-09-21T10:58:42.626Z,95500.45
2018-09-21T11:01:12.434Z,95485.80
2018-09-21T11:03:42.292Z,95476.88
2018-09-21T11:06:12.059Z,95474.55
2018-09-21T11:08:41.928Z,95476.84
2018-09-21T11:11:11.816Z,95481.81
2018-09-21T11:13:41.646Z,95478.20
2018-09-21T11:16:11.431Z,95469.81
2018-09-21T11:18:41.219Z,95472.58
2018-09-21T11:21:10.966Z,95467.66
2018-09-21T11:23:40.784Z,95451.45
2018-09-21T11:26:10.352Z,95450.63
2018-09-21T11:28:39.984Z,95448.97
2018-09-21T11:31:09.871Z,95448.11
2018-09-21T11:33:39.669Z,95447.21
2018-09-21T11:36:09.518Z,95445.34
2018-09-21T11:38:39.282Z,95443.28
2018-09-21T11:41:09.150Z,95436.16
2018-09-21T11:43:39.277Z,95435.86
2018-09-21T11:46:09.179Z,95439.05
2018-09-21T11:48:38.952Z,95431.95
2018-09-21T11:51:08.725Z,95421.98
2018-09-21T11:53:38.560Z,95423.72
2018-09-21T11:56:08.345Z,95421.18
2018-09-21T11:58:38.090Z,95408.55
2018-09-21T12:01:08.065Z,95417.73
2018-09-21T12:03:38.118Z,95416.55
2018-09-21T12:06:08.281Z,95410.99
2018-09-21T12:08:38.973Z,95409.50
2018-09-21T12:14:00.531Z,95404.25
2018-09-21T12:16:30.251Z,95399.96
2018-09-21T12:19:00.054Z,95401.77
2018-09-21T12:21:29.761Z,95393.75
2018-09-21T12:23:59.673Z,95393.41
2018-09-21T12:26:29.496Z,95393.06
2018-09-21T12:28:59.491Z,95384.98
2018-09-21T12:31:29.371Z,95385.27
2018-09-21T12:33:58.941Z,95380.34
2018-09-21T12:36:28.899Z,95379.44
2018-09-21T12:38:58.542Z,95368.84
2018-09-21T12:41:28.376Z,95375.21
2018-09-21T12:43:58.497Z,95369.41
2018-09-21T12:46:29.542Z,95374.26
2018-09-21T12:49:01.728Z,95370.25
2018-09-21T12:51:32.405Z,95370.24
2018-09-21T12:54:02.305Z,95368.10
2018-09-21T12:56:32.169Z,95358.48
2018-09-21T12:59:01.845Z,95354.56
2018-09-21T13:01:31.715Z,95361.41
2018-09-21T13:04:01.426Z,95356.98
2018-09-21T13:06:31.225Z,95361.56
2018-09-21T13:09:01.020Z,95356.88
2018-09-21T13:11:30.737Z,95356.30
2018-09-21T13:14:00.555Z,95351.20
2018-09-21T13:16:30.342Z,95348.88
2018-09-21T13:19:00.093Z,95354.81
2018-09-21T13:21:29.773Z,95352.26
2018-09-21T13:23:59.605Z,95350.41
2018-09-21T13:26:29.461Z,95347.60
2018-09-21T13:28:59.154Z,95347.19
2018-09-21T13:31:28.909Z,95345.52
2018-09-21T13:33:58.690Z,95341.10
2018-09-21T13:36:28.511Z,95339.53
2018-09-21T13:38:58.351Z,95334.76
2018-09-21T13:41:28.185Z,95331.75
2018-09-21T13:43:57.949Z,95336.53
2018-09-21T13:46:28.282Z,95328.39
2018-09-21T13:48:58.129Z,95325.70
2018-09-21T13:51:28.011Z,95327.86
2018-09-21T13:53:58.275Z,95318.19
2018-09-21T13:56:28.941Z,95328.30
2018-09-21T13:58:58.857Z,95325.90
2018-09-21T14:01:29.423Z,95326.64
2018-09-21T14:03:59.453Z,95328.59
2018-09-21T14:06:29.196Z,95321.45
2018-09-21T14:08:59.150Z,95319.52
2018-09-21T14:11:29.334Z,95329.94
2018-09-21T14:13:59.207Z,95329.01
2018-09-21T14:16:28.907Z,95330.12
2018-09-21T14:18:58.783Z,95333.39
2018-09-21T14:21:28.653Z,95327.00
2018-09-21T14:23:58.589Z,95330.23
2018-09-21T14:26:28.593Z,95330.69
2018-09-21T14:28:58.492Z,95325.54
2018-09-21T14:31:28.296Z,95320.77
2018-09-21T14:33:57.990Z,95321.08
2018-09-21T14:36:27.903Z,95315.70
2018-09-21T14:38:57.837Z,95319.22
2018-09-21T14:41:28.406Z,95319.30
2018-09-21T14:43:58.176Z,95321.05
2018-09-21T14:46:28.012Z,95316.88
2018-09-21T14:48:58.240Z,95325.77
2018-09-21T14:51:27.917Z,95319.44
2018-09-21T14:53:57.593Z,95325.84
2018-09-21T14:56:27.283Z,95320.33
2018-09-21T14:58:57.100Z,95319.60
2018-09-21T15:01:26.893Z,95322.07
2018-09-21T15:03:56.747Z,95317.64
2018-09-21T15:06:27.016Z,95315.94
2018-09-21T15:08:57.433Z,95317.17
2018-09-21T15:11:27.566Z,95321.12
2018-09-21T15:13:57.463Z,95318.63
2018-09-21T15:16:27.356Z,95317.67
2018-09-21T15:18:57.232Z,95324.18
2018-09-21T15:21:27.503Z,95318.16
2018-09-21T15:23:57.269Z,95323.78
2018-09-21T15:26:27.100Z,95322.20
2018-09-21T15:28:56.937Z,95325.66
2018-09-21T15:31:27.382Z,95289.14
2018-09-21T15:33:58.042Z,95322.58
2018-09-21T15:36:27.893Z,95333.70
2018-09-21T15:38:57.665Z,95328.44
2018-09-21T15:41:27.629Z,95322.52
2018-09-21T15:43:57.487Z,95334.67
2018-09-21T15:46:27.153Z,95334.51
2018-09-21T15:48:57.042Z,95341.92
2018-09-21T15:51:27.283Z,95336.52
2018-09-21T15:53:57.040Z,95343.66
2018-09-21T15:56:26.769Z,95346.99
2018-09-21T15:58:56.594Z,95344.90
2018-09-21T16:01:26.426Z,95343.30
2018-09-21T16:03:56.170Z,95354.18
2018-09-21T16:06:26.125Z,95354.64
2018-09-21T16:08:55.916Z,95353.95
2018-09-21T16:11:25.774Z,95349.84
2018-09-21T16:13:55.612Z,95359.17
2018-09-21T16:16:25.417Z,95360.67
2018-09-21T16:18:55.313Z,95358.38
2018-09-21T16:21:25.094Z,95366.41
2018-09-21T16:23:55.033Z,95373.08
2018-09-21T16:26:24.882Z,95375.30
2018-09-21T16:28:54.769Z,95375.77
2018-09-21T16:31:24.628Z,95379.39
2018-09-21T16:33:54.373Z,95374.86
2018-09-21T16:36:24.396Z,95376.14
2018-09-21T16:38:54.450Z,95378.29
2018-09-21T16:41:24.419Z,95381.41
2018-09-21T16:43:54.354Z,95382.13
2018-09-21T16:46:24.029Z,95375.05
2018-09-21T16:48:53.896Z,95385.73
2018-09-21T16:51:23.695Z,95386.69
2018-09-21T16:53:54.010Z,95389.88
2018-09-21T16:56:23.912Z,95401.18
2018-09-21T16:58:53.975Z,95407.53
2018-09-21T17:01:24.873Z,95411.19
2018-09-21T17:03:54.763Z,95427.69
2018-09-21T17:06:24.691Z,95418.18
2018-09-21T17:08:54.580Z,95422.56
2018-09-21T17:11:25.137Z,95422.64
2018-09-21T17:13:54.832Z,95428.67
2018-09-21T17:16:24.758Z,95427.91
2018-09-21T17:18:54.665Z,95434.05
2018-09-21T17:21:24.526Z,95444.08
2018-09-21T17:23:54.476Z,95445.15
2018-09-21T17:26:24.250Z,95451.17
2018-09-21T17:28:54.069Z,95456.52
2018-09-21T17:31:24.039Z,95461.45
2018-09-21T17:33:54.076Z,95468.45
2018-09-21T17:36:24.062Z,95476.37
2018-09-21T17:38:54.082Z,95480.86
2018-09-21T17:41:23.968Z,95478.99
2018-09-21T17:43:53.905Z,95481.00
2018-09-21T17:46:23.871Z,95489.92
2018-09-21T17:48:53.799Z,95487.69
2018-09-21T17:51:23.645Z,95496.01
2018-09-21T17:53:53.487Z,95445.28
2018-09-21T17:56:23.689Z,95499.27
2018-09-21T17:58:53.730Z,95503.16
2018-09-21T18:01:23.639Z,95508.38
2018-09-21T18:03:53.381Z,95515.67
2018-09-21T18:06:23.311Z,95518.81
2018-09-21T18:08:53.173Z,95522.12
2018-09-21T18:11:22.916Z,95533.55
2018-09-21T18:13:52.767Z,95531.50
2018-09-21T18:16:22.594Z,95545.23
2018-09-21T18:18:52.560Z,95542.67
2018-09-21T18:21:22.416Z,95549.83
2018-09-21T18:23:52.335Z,95556.93
2018-09-21T18:26:22.053Z,95553.36
2018-09-21T18:28:51.890Z,95550.19
2018-09-21T18:31:21.988Z,95554.78
2018-09-21T18:33:51.863Z,95560.67
2018-09-21T18:36:21.729Z,95562.42
2018-09-21T18:38:51.651Z,95561.38
2018-09-21T18:41:21.393Z,95559.64
2018-09-21T18:43:51.272Z,95562.97
2018-09-21T18:46:21.676Z,95560.03
2018-09-21T18:48:51.531Z,95570.19
2018-09-21T18:51:21.397Z,95566.13
2018-09-21T18:53:51.261Z,95574.91
2018-09-21T18:56:21.136Z,95572.76
2018-09-21T18:58:51.214Z,95571.81
2018-09-21T19:01:21.126Z,95575.31
2018-09-21T19:03:51.098Z,95580.83
2018-09-21T19:06:21.014Z,95582.95
2018-09-21T19:08:50.878Z,95600.78
2018-09-21T19:11:20.737Z,95589.65
2018-09-21T19:13:50.660Z,95591.80
2018-09-21T19:16:20.466Z,95593.27
2018-09-21T19:18:50.357Z,95596.17
2018-09-21T19:21:20.263Z,95601.38
2018-09-21T19:23:49.982Z,95605.45
2018-09-21T19:26:20.031Z,95604.00
2018-09-21T19:28:49.933Z,95606.42
2018-09-21T19:31:20.080Z,95614.69
2018-09-21T19:33:49.926Z,95609.43
2018-09-21T19:36:19.818Z,95603.03
2018-09-21T19:38:49.449Z,95609.21
2018-09-21T19:41:19.341Z,95607.66
2018-09-21T19:43:49.258Z,95604.86
2018-09-21T19:46:19.168Z,95603.70
2018-09-21T19:48:49.035Z,95599.09
2018-09-21T19:51:18.961Z,95603.44
2018-09-21T19:53:48.722Z,95606.75
2018-09-21T19:56:18.508Z,95612.35
2018-09-21T19:58:48.359Z,95612.10
2018-09-21T20:01:18.452Z,95611.55
2018-09-21T20:03:48.278Z,95611.73
2018-09-21T20:06:18.052Z,95611.37
2018-09-21T20:08:47.817Z,95608.58
2018-09-21T20:11:17.594Z,95616.50
2018-09-21T20:13:47.385Z,95620.73
2018-09-21T20:16:17.153Z,95613.48
2018-09-21T20:18:46.915Z,95615.03
2018-09-21T20:21:16.594Z,95616.48
2018-09-21T20:23:46.577Z,95625.92
2018-09-21T20:26:16.263Z,95620.30
2018-09-21T20:28:46.212Z,95629.27
2018-09-21T20:31:21.119Z,95628.73
2018-09-21T20:33:50.848Z,95409.09
2018-09-21T20:36:20.437Z,95635.09
2018-09-21T20:38:50.238Z,95629.19
2018-09-21T20:41:20.205Z,95626.54
2018-09-21T20:43:49.899Z,95629.48
2018-09-21T20:46:19.629Z,95630.13
2018-09-21T20:48:49.392Z,95631.93
2018-09-21T20:51:19.168Z,95634.03
2018-09-21T20:53:48.937Z,95631.78
2018-09-21T20:56:18.828Z,95631.84
2018-09-21T20:58:48.636Z,95627.14
2018-09-21T21:01:18.453Z,95627.84
2018-09-21T21:03:48.653Z,95626.25
2018-09-21T21:06:18.513Z,95625.34
2018-09-21T21:08:48.250Z,95622.50
2018-09-21T21:11:18.004Z,95619.25
2018-09-21T21:13:47.701Z,95625.67
2018-09-21T21:16:17.337Z,95634.44
2018-09-21T21:18:46.921Z,95629.99
2018-09-21T21:21:16.853Z,95630.09
2018-09-21T21:23:46.777Z,95630.26
2018-09-21T21:26:16.624Z,95631.34
2018-09-21T21:28:46.415Z,95638.16
2018-09-21T21:31:16.180Z,95638.80
2018-09-21T21:33:46.009Z,95639.22
2018-09-21T21:36:15.891Z,95636.62
2018-09-21T21:38:45.710Z,95635.82
2018-09-21T21:41:15.482Z,95632.25
2018-09-21T21:43:45.151Z,95637.28
2018-09-21T21:46:15.045Z,95635.84
2018-09-21T21:48:44.829Z,95637.10
2018-09-21T21:51:14.748Z,95636.20
2018-09-21T21:53:44.622Z,95635.02
2018-09-21T21:56:14.481Z,95634.38
2018-09-21T21:58:44.227Z,95634.45
2018-09-21T22:01:19.018Z,95637.69
2018-09-21T22:03:48.829Z,95635.47
2018-09-21T22:06:18.858Z,95640.83
2018-09-21T22:08:48.705Z,95643.74
2018-09-21T22:11:24.357Z,95644.89
2018-09-21T22:13:59.135Z,95643.80
2018-09-21T22:16:28.996Z,95643.53
2018-09-21T22:18:58.694Z,95649.48
2018-09-21T22:21:28.904Z,95645.94
2018-09-21T22:23:58.849Z,95644.81
2018-09-21T22:26:28.672Z,95643.72
2018-09-21T22:28:58.806Z,95641.36
2018-09-21T22:31:29.289Z,95638.38
2018-09-21T22:33:59.136Z,95642.17
2018-09-21T22:36:28.869Z,95641.78
2018-09-21T22:38:58.663Z,95638.55
2018-09-21T22:41:28.539Z,95636.44
2018-09-21T22:43:58.480Z,95637.03
2018-09-21T22:46:28.193Z,95644.06
2018-09-21T22:48:58.410Z,95642.58
2018-09-21T22:51:28.105Z,95636.38
2018-09-21T22:53:57.831Z,95637.00
2018-09-21T22:56:27.686Z,95631.41
2018-09-21T22:58:57.407Z,95632.13
2018-09-21T23:01:27.125Z,95631.38
2018-09-21T23:03:56.669Z,95633.17
2018-09-21T23:06:26.573Z,95629.84
2018-09-21T23:08:56.270Z,95634.84
2018-09-21T23:11:26.089Z,95628.28
2018-09-21T23:13:55.850Z,95623.84
2018-09-21T23:16:25.728Z,95626.94
2018-09-21T23:18:55.400Z,95625.31
2018-09-21T23:21:25.373Z,95627.94
2018-09-21T23:23:55.177Z,95631.95
2018-09-21T23:26:25.084Z,95631.11
2018-09-21T23:28:54.907Z,95629.03
2018-09-21T23:31:25.122Z,95628.45
2018-09-21T23:33:55.129Z,95633.66
2018-09-21T23:36:24.933Z,95627.02
2018-09-21T23:38:54.777Z,95630.55
2018-09-21T23:41:24.587Z,95631.42
2018-09-21T23:43:54.364Z,95626.25
2018-09-21T23:46:24.188Z,95623.50
2018-09-21T23:48:54.001Z,95623.66
2018-09-21T23:51:23.920Z,95626.34
2018-09-21T23:53:53.642Z,95621.84
2018-09-21T23:56:23.506Z,95622.97
2018-09-21T23:58:53.352Z,95623.81
